createdAt,value
2018-11-02T00:01:19.215Z,20.28
2018-11-02T00:02:50.788Z,20.32
2018-11-02T00:04:22.460Z,20.33
2018-11-02T00:05:53.935Z,20.41
2018-11-02T00:07:25.508Z,20.43
2018-11-02T00:08:57.814Z,20.62
2018-11-02T00:10:28.656Z,20.55
2018-11-02T00:12:00.230Z,20.42
2018-11-02T00:13:31.804Z,20.51
2018-11-02T00:15:03.377Z,20.76
2018-11-02T00:16:34.950Z,20.88
2018-11-02T00:18:06.524Z,20.82
2018-11-02T00:19:38.401Z,20.74
2018-11-02T00:21:09.670Z,20.84
2018-11-02T00:22:41.346Z,20.85
2018-11-02T00:24:12.819Z,20.69
2018-11-02T00:25:44.393Z,20.76
2018-11-02T00:27:15.965Z,20.74
2018-11-02T00:28:47.537Z,20.72
2018-11-02T00:30:19.111Z,20.76
2018-11-02T00:31:50.731Z,20.76
2018-11-02T00:33:22.258Z,20.69
2018-11-02T00:34:54.036Z,20.69
2018-11-02T00:36:25.406Z,20.62
2018-11-02T00:37:56.978Z,20.54
2018-11-02T00:39:28.551Z,20.55
2018-11-02T00:41:00.228Z,20.67
2018-11-02T00:42:31.697Z,20.69
2018-11-02T00:44:03.439Z,20.69
2018-11-02T00:45:34.842Z,20.67
2018-11-02T00:47:06.417Z,20.58
2018-11-02T00:48:37.991Z,20.61
2018-11-02T00:50:09.563Z,20.58
2018-11-02T00:51:41.664Z,20.52
2018-11-02T00:53:12.708Z,20.41
2018-11-02T00:54:44.282Z,20.42
2018-11-02T00:56:15.854Z,20.51
2018-11-02T00:59:19.099Z,20.41
2018-11-02T01:00:50.775Z,20.38
2018-11-02T01:02:22.147Z,20.28
2018-11-02T01:03:53.719Z,20.31
2018-11-02T01:05:25.294Z,20.16
2018-11-02T01:06:57.392Z,20.14
2018-11-02T01:08:28.438Z,20.18
2018-11-02T01:10:00.010Z,20.18
2018-11-02T01:11:31.582Z,20.16
2018-11-02T01:13:03.154Z,20.05
2018-11-02T01:14:34.727Z,20.01
2018-11-02T01:16:06.299Z,19.94
2018-11-02T01:17:37.972Z,19.94
2018-11-02T01:19:09.445Z,19.88
2018-11-02T01:20:41.018Z,19.88
2018-11-02T01:22:12.591Z,19.80
2018-11-02T01:23:44.163Z,19.80
2018-11-02T01:25:15.736Z,19.87
2018-11-02T01:26:47.309Z,19.86
2018-11-02T01:28:18.914Z,19.81
2018-11-02T01:29:50.453Z,19.84
2018-11-02T01:31:22.027Z,19.77
2018-11-02T01:32:53.599Z,19.66
2018-11-02T01:34:25.171Z,19.80
2018-11-02T01:35:56.845Z,19.73
2018-11-02T01:37:28.315Z,19.68
2018-11-02T01:38:59.888Z,19.51
2018-11-02T01:40:31.462Z,19.62
2018-11-02T01:42:03.033Z,19.55
2018-11-02T01:43:34.605Z,19.54
2018-11-02T01:45:06.177Z,19.44
2018-11-02T01:46:37.751Z,19.50
2018-11-02T01:48:09.346Z,19.44
2018-11-02T01:49:41.404Z,19.41
2018-11-02T01:51:12.467Z,19.41
2018-11-02T01:52:44.039Z,19.48
2018-11-02T01:54:15.745Z,19.48
2018-11-02T01:55:47.185Z,19.47
2018-11-02T01:57:18.780Z,19.51
2018-11-02T01:58:50.337Z,19.58
2018-11-02T02:00:21.902Z,19.47
2018-11-02T02:01:53.474Z,19.47
2018-11-02T02:03:25.047Z,19.46
2018-11-02T02:04:56.638Z,19.50
2018-11-02T02:06:28.201Z,19.51
2018-11-02T02:07:59.763Z,19.50
2018-11-02T02:09:31.334Z,19.50
2018-11-02T02:11:02.908Z,19.40
2018-11-02T02:12:34.579Z,19.44
2018-11-02T02:14:06.097Z,19.44
2018-11-02T02:15:37.653Z,19.37
2018-11-02T02:17:09.198Z,19.40
2018-11-02T02:18:40.767Z,19.32
2018-11-02T02:20:12.341Z,19.47
2018-11-02T02:21:43.911Z,19.43
2018-11-02T02:23:15.483Z,19.37
2018-11-02T02:24:47.056Z,19.46
2018-11-02T02:26:18.628Z,19.43
2018-11-02T02:27:50.200Z,19.37
2018-11-02T02:29:21.772Z,19.39
2018-11-02T02:30:53.974Z,19.39
2018-11-02T02:32:24.916Z,19.33
2018-11-02T02:33:56.491Z,19.36
2018-11-02T02:35:28.061Z,19.28
2018-11-02T02:38:31.205Z,19.28
2018-11-02T02:40:02.777Z,19.23
2018-11-02T02:41:34.349Z,19.36
2018-11-02T02:43:05.922Z,19.32
2018-11-02T02:44:37.497Z,19.33
2018-11-02T02:46:09.066Z,19.37
2018-11-02T02:47:41.145Z,19.31
2018-11-02T02:49:12.214Z,19.28
2018-11-02T02:50:43.884Z,19.28
2018-11-02T02:52:15.357Z,19.25
2018-11-02T02:53:47.233Z,19.31
2018-11-02T02:55:18.501Z,19.33
2018-11-02T02:56:50.074Z,19.23
2018-11-02T02:58:21.645Z,19.29
2018-11-02T02:59:53.223Z,19.22
2018-11-02T03:01:24.790Z,19.28
2018-11-02T03:02:56.363Z,19.32
2018-11-02T03:04:27.935Z,19.32
2018-11-02T03:05:59.523Z,19.32
2018-11-02T03:07:31.080Z,19.44
2018-11-02T03:09:02.753Z,19.37
2018-11-02T03:10:34.276Z,19.48
2018-11-02T03:12:05.803Z,19.39
2018-11-02T03:13:37.370Z,19.48
2018-11-02T03:15:08.943Z,19.43
2018-11-02T03:16:40.515Z,19.46
2018-11-02T03:18:12.152Z,19.58
2018-11-02T03:19:43.660Z,19.48
2018-11-02T03:21:15.233Z,19.59
2018-11-02T03:22:46.805Z,19.59
2018-11-02T03:24:18.377Z,19.55
2018-11-02T03:25:49.950Z,19.63
2018-11-02T03:27:21.622Z,19.63
2018-11-02T03:28:53.624Z,19.62
2018-11-02T03:30:24.668Z,19.65
2018-11-02T03:31:56.240Z,19.66
2018-11-02T03:33:27.813Z,19.66
2018-11-02T03:34:59.387Z,19.61
2018-11-02T03:36:30.958Z,19.63
2018-11-02T03:38:02.545Z,19.65
2018-11-02T03:39:34.106Z,19.66
2018-11-02T03:41:05.678Z,19.71
2018-11-02T03:42:37.254Z,19.58
2018-11-02T03:44:08.824Z,19.63
2018-11-02T03:47:12.519Z,19.55
2018-11-02T03:48:43.541Z,19.56
2018-11-02T03:50:15.117Z,19.47
2018-11-02T03:51:46.888Z,19.54
2018-11-02T03:53:18.264Z,19.41
2018-11-02T03:54:49.831Z,19.44
2018-11-02T03:56:21.422Z,19.36
2018-11-02T03:57:53.049Z,19.29
2018-11-02T03:59:24.550Z,19.13
2018-11-02T04:02:27.695Z,19.14
2018-11-02T04:03:59.289Z,19.10
2018-11-02T04:05:30.942Z,19.11
2018-11-02T04:07:02.410Z,19.10
2018-11-02T04:08:33.983Z,19.02
2018-11-02T04:10:05.556Z,18.99
2018-11-02T04:11:37.127Z,18.99
2018-11-02T04:13:08.700Z,19.04
2018-11-02T04:14:40.272Z,19.06
2018-11-02T04:16:11.844Z,18.88
2018-11-02T04:17:43.417Z,18.88
2018-11-02T04:19:14.990Z,18.91
2018-11-02T04:20:46.561Z,18.87
2018-11-02T04:22:18.138Z,18.84
2018-11-02T04:23:49.806Z,18.85
2018-11-02T04:25:21.277Z,18.90
2018-11-02T04:26:53.052Z,18.82
2018-11-02T04:28:24.422Z,19.02
2018-11-02T04:29:55.995Z,19.08
2018-11-02T04:31:27.567Z,19.14
2018-11-02T04:32:59.139Z,19.16
2018-11-02T04:34:30.710Z,19.10
2018-11-02T04:36:02.282Z,19.14
2018-11-02T04:37:33.855Z,19.11
2018-11-02T04:39:05.428Z,19.14
2018-11-02T04:40:37.000Z,19.11
2018-11-02T04:42:08.672Z,19.14
2018-11-02T04:45:11.716Z,19.13
2018-11-02T04:46:43.288Z,19.21
2018-11-02T04:48:14.862Z,19.22
2018-11-02T04:49:46.462Z,19.07
2018-11-02T04:51:18.326Z,18.91
2018-11-02T04:52:49.578Z,18.90
2018-11-02T04:54:21.151Z,18.91
2018-11-02T04:55:52.723Z,18.87
2018-11-02T04:57:24.345Z,18.88
2018-11-02T04:58:55.868Z,18.90
2018-11-02T05:00:28.241Z,18.88
2018-11-02T05:03:30.585Z,18.88
2018-11-02T05:05:02.157Z,18.99
2018-11-02T05:06:34.381Z,18.98
2018-11-02T05:08:05.302Z,18.98
2018-11-02T05:09:36.882Z,18.98
2018-11-02T05:11:08.460Z,19.02
2018-11-02T05:12:40.018Z,18.95
2018-11-02T05:14:11.590Z,19.04
2018-11-02T05:15:43.163Z,19.00
2018-11-02T05:17:14.737Z,19.06
2018-11-02T05:18:46.407Z,19.13
2018-11-02T05:20:17.881Z,18.87
2018-11-02T05:21:49.453Z,18.82
2018-11-02T05:23:21.024Z,18.91
2018-11-02T05:24:52.800Z,18.92
2018-11-02T05:26:24.169Z,18.92
2018-11-02T05:27:55.743Z,18.94
2018-11-02T05:29:27.315Z,19.02
2018-11-02T05:30:59.091Z,19.02
2018-11-02T05:32:30.459Z,19.04
2018-11-02T05:34:02.032Z,19.00
2018-11-02T05:35:33.607Z,18.85
2018-11-02T05:37:05.277Z,18.90
2018-11-02T05:38:36.749Z,18.84
2018-11-02T05:40:08.323Z,18.75
2018-11-02T05:41:39.896Z,18.81
2018-11-02T05:43:11.465Z,18.76
2018-11-02T05:44:43.037Z,18.76
2018-11-02T05:46:14.610Z,18.90
2018-11-02T05:49:17.756Z,18.81
2018-11-02T05:50:49.325Z,18.88
2018-11-02T05:52:20.897Z,18.98
2018-11-02T05:53:52.469Z,18.98
2018-11-02T05:55:24.149Z,18.91
2018-11-02T05:56:55.816Z,18.92
2018-11-02T05:58:27.186Z,18.90
2018-11-02T05:59:58.812Z,18.98
2018-11-02T06:01:30.357Z,18.91
2018-11-02T06:03:01.902Z,18.98
2018-11-02T06:04:33.477Z,19.00
2018-11-02T06:06:05.048Z,18.98
2018-11-02T06:07:36.659Z,18.99
2018-11-02T06:09:08.189Z,18.90
2018-11-02T06:10:39.762Z,19.06
2018-11-02T06:12:11.334Z,19.02
2018-11-02T06:13:43.008Z,18.99
2018-11-02T06:15:14.480Z,19.02
2018-11-02T06:16:46.108Z,18.82
2018-11-02T06:18:17.628Z,18.95
2018-11-02T06:19:49.195Z,18.88
2018-11-02T06:21:20.769Z,18.78
2018-11-02T06:22:52.341Z,18.73
2018-11-02T06:24:23.953Z,18.70
2018-11-02T06:25:55.488Z,18.78
2018-11-02T06:27:27.058Z,18.70
2018-11-02T06:28:58.629Z,18.81
2018-11-02T06:30:30.222Z,18.82
2018-11-02T06:32:01.872Z,18.80
2018-11-02T06:33:33.344Z,18.78
2018-11-02T06:35:04.917Z,18.91
2018-11-02T06:36:36.492Z,18.84
2018-11-02T06:38:08.060Z,18.80
2018-11-02T06:41:11.204Z,18.78
2018-11-02T06:42:42.776Z,18.70
2018-11-02T06:44:14.349Z,18.69
2018-11-02T06:45:45.921Z,18.82
2018-11-02T06:47:17.493Z,18.80
2018-11-02T06:48:49.065Z,18.73
2018-11-02T06:50:20.740Z,18.78
2018-11-02T06:51:52.210Z,18.66
2018-11-02T06:53:23.783Z,18.72
2018-11-02T06:54:55.357Z,18.75
2018-11-02T06:56:26.925Z,18.75
2018-11-02T06:57:58.497Z,18.75
2018-11-02T06:59:30.179Z,18.72
2018-11-02T07:01:01.640Z,18.78
2018-11-02T07:02:33.213Z,18.80
2018-11-02T07:04:04.786Z,18.90
2018-11-02T07:05:36.357Z,18.84
2018-11-02T07:07:07.974Z,18.85
2018-11-02T07:08:39.617Z,19.00
2018-11-02T07:10:11.072Z,18.99
2018-11-02T07:11:42.643Z,19.00
2018-11-02T07:13:14.218Z,19.04
2018-11-02T07:14:45.788Z,19.08
2018-11-02T07:16:17.361Z,19.04
2018-11-02T07:17:48.932Z,19.10
2018-11-02T07:19:20.505Z,19.02
2018-11-02T07:20:52.078Z,19.00
2018-11-02T07:22:23.649Z,19.02
2018-11-02T07:23:55.223Z,19.11
2018-11-02T07:25:26.797Z,19.10
2018-11-02T07:26:58.467Z,19.00
2018-11-02T07:28:29.942Z,18.98
2018-11-02T07:30:01.517Z,19.04
2018-11-02T07:31:33.085Z,18.99
2018-11-02T07:33:04.656Z,18.90
2018-11-02T07:34:36.321Z,18.98
2018-11-02T07:36:07.800Z,18.98
2018-11-02T07:37:39.376Z,19.04
2018-11-02T07:39:10.946Z,19.04
2018-11-02T07:40:42.518Z,18.94
2018-11-02T07:42:14.090Z,18.95
2018-11-02T07:43:45.664Z,18.92
2018-11-02T07:45:17.363Z,18.92
2018-11-02T07:46:53.634Z,18.88
2018-11-02T07:48:20.394Z,18.84
2018-11-02T07:49:51.951Z,18.84
2018-11-02T07:51:23.526Z,18.82
2018-11-02T07:52:55.149Z,18.82
2018-11-02T07:54:26.679Z,18.90
2018-11-02T07:55:58.239Z,18.82
2018-11-02T07:57:29.811Z,18.91
2018-11-02T07:59:01.432Z,18.90
2018-11-02T08:00:32.956Z,18.92
2018-11-02T08:02:04.704Z,18.90
2018-11-02T08:03:36.202Z,18.90
2018-11-02T08:05:07.696Z,18.95
2018-11-02T08:06:39.246Z,18.99
2018-11-02T08:08:10.818Z,19.00
2018-11-02T08:09:42.692Z,18.98
2018-11-02T08:11:14.066Z,18.99
2018-11-02T08:12:45.672Z,18.85
2018-11-02T08:14:17.104Z,18.81
2018-11-02T08:15:48.742Z,18.80
2018-11-02T08:17:20.245Z,18.78
2018-11-02T08:20:23.404Z,18.82
2018-11-02T08:21:55.126Z,18.78
2018-11-02T08:23:26.544Z,18.81
2018-11-02T08:24:58.330Z,18.82
2018-11-02T08:26:29.880Z,18.85
2018-11-02T08:28:01.308Z,18.91
2018-11-02T08:29:32.878Z,18.88
2018-11-02T08:31:05.128Z,18.87
2018-11-02T08:32:36.028Z,18.85
2018-11-02T08:34:07.539Z,18.90
2018-11-02T08:35:39.169Z,18.88
2018-11-02T08:37:10.751Z,18.94
2018-11-02T08:38:42.249Z,18.90
2018-11-02T08:40:14.024Z,18.95
2018-11-02T08:43:17.496Z,19.07
2018-11-02T08:44:48.594Z,19.11
2018-11-02T08:46:20.152Z,19.11
2018-11-02T08:47:52.008Z,19.13
2018-11-02T08:49:23.283Z,19.25
2018-11-02T08:50:54.837Z,19.26
2018-11-02T08:52:26.428Z,19.31
2018-11-02T08:55:29.543Z,19.32
2018-11-02T09:00:04.396Z,19.69
2018-11-02T09:01:35.834Z,19.58
2018-11-02T09:03:07.406Z,19.61
2018-11-02T09:04:38.978Z,19.71
2018-11-02T09:06:10.558Z,19.84
2018-11-02T09:07:42.126Z,19.91
2018-11-02T09:09:13.698Z,19.87
2018-11-02T09:10:45.273Z,19.96
2018-11-02T09:12:16.964Z,19.91
2018-11-02T09:13:48.421Z,19.92
2018-11-02T09:18:23.270Z,19.91
2018-11-02T09:21:26.550Z,19.80
2018-11-02T09:22:57.867Z,19.83
2018-11-02T09:24:29.744Z,19.87
2018-11-02T09:26:01.011Z,19.83
2018-11-02T09:27:32.717Z,19.74
2018-11-02T09:29:04.280Z,19.81
2018-11-02T09:30:35.944Z,19.80
2018-11-02T09:32:08.445Z,19.95
2018-11-02T09:33:38.885Z,20.18
2018-11-02T09:35:10.759Z,20.41
2018-11-02T09:38:13.906Z,20.29
2018-11-02T09:39:46.113Z,20.13
2018-11-02T09:41:16.752Z,20.03
2018-11-02T09:42:48.448Z,20.11
2018-11-02T09:44:19.902Z,20.10
2018-11-02T09:47:23.051Z,19.96
2018-11-02T09:50:26.200Z,19.94
2018-11-02T09:53:29.350Z,20.28
2018-11-02T09:56:33.002Z,20.28
2018-11-02T09:59:35.648Z,20.29
2018-11-02T10:04:10.374Z,20.84
2018-11-02T10:05:41.950Z,20.58
2018-11-02T10:07:13.526Z,20.70
2018-11-02T10:08:45.098Z,20.41
2018-11-02T10:10:16.674Z,20.13
2018-11-02T10:11:48.255Z,20.24
2018-11-02T10:13:20.759Z,20.16
2018-11-02T10:14:52.007Z,20.08
2018-11-02T10:17:54.956Z,20.58
2018-11-02T10:22:29.276Z,20.85
2018-11-02T10:25:32.428Z,20.74
2018-11-02T10:28:35.579Z,20.57
2018-11-02T10:30:07.154Z,20.62
2018-11-02T10:33:10.935Z,20.70
2018-11-02T10:36:13.457Z,20.31
2018-11-02T10:39:16.839Z,20.82
2018-11-02T10:40:49.325Z,21.06
2018-11-02T10:43:51.639Z,21.04
2018-11-02T10:45:22.921Z,20.82
2018-11-02T10:49:57.640Z,21.16
2018-11-02T10:51:29.324Z,21.24
2018-11-02T10:53:00.794Z,21.43
2018-11-02T10:57:35.542Z,21.46
2018-11-02T10:59:07.108Z,21.54
2018-11-02T11:00:39.010Z,21.49
2018-11-02T11:02:10.255Z,21.27
2018-11-02T11:03:41.830Z,21.32
2018-11-02T11:06:44.985Z,21.31
2018-11-02T11:09:48.241Z,21.13
2018-11-02T11:12:51.680Z,21.64
2018-11-02T11:14:22.872Z,21.58
2018-11-02T11:15:54.652Z,21.22
2018-11-02T11:18:57.909Z,21.82
2018-11-02T11:20:29.184Z,22.24
2018-11-02T11:22:00.761Z,22.55
2018-11-02T11:23:32.338Z,22.20
2018-11-02T11:25:03.917Z,21.96
2018-11-02T11:26:35.496Z,21.54
2018-11-02T11:28:07.680Z,21.62
2018-11-02T11:32:41.808Z,21.96
2018-11-02T11:34:13.592Z,22.35
2018-11-02T11:35:44.965Z,22.24
2018-11-02T11:37:16.543Z,22.06
2018-11-02T11:38:48.124Z,22.20
2018-11-02T11:40:19.754Z,21.74
2018-11-02T11:41:51.280Z,21.65
2018-11-02T11:43:22.859Z,21.86
2018-11-02T11:44:54.438Z,22.07
2018-11-02T11:47:58.000Z,21.96
2018-11-02T11:49:29.173Z,22.05
2018-11-02T11:51:00.966Z,22.18
2018-11-02T11:52:32.330Z,22.47
2018-11-02T11:55:35.489Z,22.45
2018-11-02T11:57:07.066Z,22.07
2018-11-02T11:58:38.645Z,22.15
2018-11-02T12:00:10.755Z,22.25
2018-11-02T12:01:42.310Z,22.07
2018-11-02T12:03:13.689Z,22.35
2018-11-02T12:04:45.025Z,22.42
2018-11-02T12:07:48.219Z,22.05
2018-11-02T12:09:19.957Z,21.94
2018-11-02T12:10:51.477Z,22.45
2018-11-02T12:12:22.854Z,22.70
2018-11-02T12:15:26.018Z,22.52
2018-11-02T12:16:58.120Z,22.45
2018-11-02T12:18:29.170Z,22.47
2018-11-02T12:23:40.501Z,22.33
2018-11-02T12:24:35.527Z,22.60
2018-11-02T12:26:07.107Z,22.75
2018-11-02T12:27:38.825Z,23.02
2018-11-02T12:29:10.860Z,22.47
2018-11-02T12:30:42.144Z,22.49
2018-11-02T12:32:13.449Z,22.39
2018-11-02T12:33:48.018Z,22.67
2018-11-02T12:35:16.615Z,22.39
2018-11-02T12:36:48.730Z,22.60
2018-11-02T12:38:19.774Z,22.55
2018-11-02T12:39:51.353Z,22.31
2018-11-02T12:41:22.932Z,22.45
2018-11-02T12:44:51.782Z,22.36
2018-11-02T12:45:57.770Z,22.62
2018-11-02T12:47:29.249Z,22.58
2018-11-02T12:50:33.091Z,22.49
2018-11-02T12:52:03.986Z,22.64
2018-11-02T12:53:36.042Z,22.79
2018-11-02T12:58:10.302Z,22.73
2018-11-02T13:01:13.460Z,22.94
2018-11-02T13:02:45.040Z,22.46
2018-11-02T13:08:51.458Z,22.92
2018-11-02T13:10:22.938Z,22.72
2018-11-02T13:11:54.513Z,22.83
2018-11-02T13:14:57.672Z,23.23
2018-11-02T13:18:01.088Z,24.37
2018-11-02T13:19:32.409Z,24.21
2018-11-02T13:22:35.570Z,23.91
2018-11-02T13:24:07.454Z,24.25
2018-11-02T13:25:38.832Z,24.35
2018-11-02T13:27:10.615Z,23.83
2018-11-02T13:30:14.284Z,24.76
2018-11-02T13:31:45.110Z,25.08
2018-11-02T13:33:16.639Z,24.80
2018-11-02T13:35:00.954Z,24.42
2018-11-02T13:36:20.068Z,24.15
2018-11-02T13:37:51.586Z,23.46
2018-11-02T13:39:22.966Z,23.53
2018-11-02T13:40:54.545Z,24.09
2018-11-02T13:42:26.127Z,24.06
2018-11-02T13:44:23.385Z,24.78
2018-11-02T13:53:42.651Z,24.88
2018-11-02T13:55:14.232Z,25.52
2018-11-02T13:56:46.423Z,25.00
2018-11-02T13:58:17.397Z,25.20
2018-11-02T13:59:49.005Z,25.55
2018-11-02T14:01:20.920Z,25.43
2018-11-02T14:02:52.160Z,25.14
2018-11-02T14:04:24.363Z,26.23
2018-11-02T14:07:27.325Z,26.45
2018-11-02T14:08:59.142Z,24.62
2018-11-02T14:13:33.539Z,24.90
2018-11-02T14:16:36.417Z,25.77
2018-11-02T14:18:08.497Z,26.48
2018-11-02T14:21:11.182Z,26.76
2018-11-02T14:24:14.446Z,25.95
2018-11-02T14:25:45.926Z,25.95
2018-11-02T14:30:21.149Z,25.90
2018-11-02T14:31:53.131Z,25.42
2018-11-02T14:33:23.913Z,25.02
2018-11-02T14:34:55.700Z,25.24
2018-11-02T14:37:58.667Z,24.37
2018-11-02T14:39:30.252Z,24.12
2018-11-02T14:41:02.526Z,24.46
2018-11-02T14:42:33.415Z,25.46
2018-11-02T14:44:04.998Z,26.20
2018-11-02T14:47:08.168Z,26.76
2018-11-02T14:48:40.050Z,27.06
2018-11-02T14:50:11.429Z,27.10
2018-11-02T14:53:14.496Z,27.28
2018-11-02T14:56:18.242Z,28.22
2018-11-02T14:59:21.587Z,26.69
2018-11-02T15:00:52.518Z,26.87
2018-11-02T15:02:24.211Z,26.77
2018-11-02T15:05:27.172Z,27.90
2018-11-02T15:06:58.756Z,28.93
2018-11-02T15:08:30.806Z,29.16
2018-11-02T15:11:33.554Z,26.52
2018-11-02T15:13:05.305Z,26.60
2018-11-02T15:17:41.043Z,28.86
2018-11-02T15:19:12.425Z,28.78
2018-11-02T15:20:43.033Z,28.92
2018-11-02T15:22:14.620Z,28.89
2018-11-02T15:23:46.358Z,27.72
2018-11-02T15:25:17.796Z,26.43
2018-11-02T15:26:49.384Z,27.40
2018-11-02T15:28:20.971Z,26.01
2018-11-02T15:29:52.864Z,26.97
2018-11-02T15:32:56.715Z,27.78
2018-11-02T15:34:27.568Z,28.43
2018-11-02T15:35:58.918Z,28.18
2018-11-02T15:37:30.498Z,29.04
2018-11-02T15:40:33.676Z,28.33
2018-11-02T15:42:05.362Z,28.67
2018-11-02T15:43:36.852Z,28.62
2018-11-02T15:46:40.723Z,28.92
2018-11-02T15:48:12.355Z,29.49
2018-11-02T15:51:14.966Z,26.87
2018-11-02T15:54:18.183Z,28.30
2018-11-02T15:55:49.567Z,28.19
2018-11-02T16:01:56.266Z,28.02
2018-11-02T16:03:27.500Z,27.14
2018-11-02T16:08:02.370Z,27.40
2018-11-02T16:09:33.912Z,27.65
2018-11-02T16:12:37.187Z,26.44
2018-11-02T16:14:08.888Z,26.45
2018-11-02T16:18:43.475Z,27.67
2018-11-02T16:20:15.295Z,28.11
2018-11-02T16:23:18.132Z,29.00
2018-11-02T16:26:21.455Z,27.37
2018-11-02T16:27:52.873Z,28.33
2018-11-02T16:29:24.765Z,29.06
2018-11-02T16:30:56.885Z,28.86
2018-11-02T16:32:28.360Z,27.60
2018-11-02T16:33:59.897Z,28.36
2018-11-02T16:35:31.696Z,28.12
2018-11-02T16:37:02.877Z,27.92
2018-11-02T16:38:34.138Z,27.63
2018-11-02T16:41:37.467Z,27.32
2018-11-02T16:43:08.889Z,26.88
2018-11-02T16:44:40.438Z,25.15
2018-11-02T16:47:43.649Z,25.95
2018-11-02T16:49:15.401Z,27.19
2018-11-02T16:50:47.071Z,28.40
2018-11-02T16:52:18.713Z,28.61
2018-11-02T16:55:21.535Z,28.40
2018-11-02T16:56:53.279Z,27.22
2018-11-02T16:59:56.360Z,26.45
2018-11-02T17:02:59.976Z,27.79
2018-11-02T17:06:02.778Z,29.06
2018-11-02T17:07:34.314Z,29.15
2018-11-02T17:10:37.375Z,29.08
2018-11-02T17:12:09.002Z,28.03
2018-11-02T17:13:41.072Z,29.18
2018-11-02T17:15:12.170Z,29.42
2018-11-02T17:16:44.491Z,29.21
2018-11-02T17:21:30.180Z,29.12
2018-11-02T17:23:01.717Z,29.09
2018-11-02T17:24:33.495Z,28.95
2018-11-02T17:26:04.881Z,28.85
2018-11-02T17:27:37.072Z,28.95
2018-11-02T17:29:08.052Z,27.78
2018-11-02T17:30:39.649Z,27.81
2018-11-02T17:32:11.234Z,28.00
2018-11-02T17:33:43.350Z,28.68
2018-11-02T17:35:14.506Z,27.87
2018-11-02T17:38:17.579Z,27.99
2018-11-02T17:39:49.366Z,27.96
2018-11-02T17:41:20.750Z,26.06
2018-11-02T17:42:52.538Z,25.18
2018-11-02T17:44:23.922Z,24.61
2018-11-02T17:45:55.599Z,24.65
2018-11-02T17:47:27.391Z,25.03
2018-11-02T17:48:58.673Z,25.90
2018-11-02T17:50:30.256Z,26.52
2018-11-02T17:52:01.841Z,27.55
2018-11-02T17:53:33.648Z,27.09
2018-11-02T17:55:05.615Z,25.25
2018-11-02T17:56:36.592Z,24.78
2018-11-02T17:58:08.178Z,25.33
2018-11-02T17:59:40.893Z,25.39
2018-11-02T18:01:11.872Z,26.37
2018-11-02T18:07:17.678Z,24.45
2018-11-02T18:08:49.260Z,24.35
2018-11-02T18:10:21.045Z,24.80
2018-11-02T18:11:52.546Z,24.22
2018-11-02T18:13:24.309Z,24.27
2018-11-02T18:16:27.476Z,24.62
2018-11-02T18:17:58.753Z,24.81
2018-11-02T18:19:30.539Z,24.65
2018-11-02T18:22:33.499Z,23.61
2018-11-02T18:24:05.155Z,23.84
2018-11-02T18:25:36.971Z,24.13
2018-11-02T18:27:08.548Z,24.25
2018-11-02T18:28:39.824Z,23.58
2018-11-02T18:30:11.406Z,23.13
2018-11-02T18:31:43.288Z,22.62
2018-11-02T18:33:14.769Z,22.27
2018-11-02T18:34:46.214Z,22.45
2018-11-02T18:36:17.727Z,22.31
2018-11-02T18:37:49.304Z,22.43
2018-11-02T18:40:52.463Z,22.76
2018-11-02T18:43:55.623Z,22.52
2018-11-02T18:45:27.198Z,22.73
2018-11-02T18:46:58.783Z,22.64
2018-11-02T18:48:30.561Z,22.24
2018-11-02T18:51:33.814Z,21.49
2018-11-02T18:53:05.090Z,21.65
2018-11-02T18:54:36.870Z,22.17
2018-11-02T18:56:08.977Z,22.21
2018-11-02T18:57:39.831Z,22.15
2018-11-02T18:59:11.425Z,22.00
2018-11-02T19:00:42.977Z,22.02
2018-11-02T19:02:14.859Z,22.12
2018-11-02T19:03:46.133Z,22.09
2018-11-02T19:06:49.286Z,22.18
2018-11-02T19:08:20.864Z,22.20
2018-11-02T19:11:24.321Z,22.02
2018-11-02T19:14:27.244Z,21.31
2018-11-02T19:17:30.525Z,21.29
2018-11-02T19:19:02.101Z,21.34
2018-11-02T19:20:33.872Z,21.80
2018-11-02T19:22:05.052Z,21.91
2018-11-02T19:23:36.631Z,21.91
2018-11-02T19:25:08.205Z,22.06
2018-11-02T19:28:11.357Z,21.35
2018-11-02T19:29:43.033Z,21.31
2018-11-02T19:32:46.675Z,21.74
2018-11-02T19:35:49.237Z,21.61
2018-11-02T19:37:20.814Z,21.46
2018-11-02T19:38:52.389Z,21.74
2018-11-02T19:40:23.968Z,21.58
2018-11-02T19:41:55.539Z,21.67
2018-11-02T19:43:27.115Z,21.62
2018-11-02T19:44:58.693Z,21.80
2018-11-02T19:46:30.266Z,21.59
2018-11-02T19:48:02.446Z,21.75
2018-11-02T19:49:33.720Z,21.84
2018-11-02T19:52:36.568Z,21.80
2018-11-02T19:54:08.144Z,21.49
2018-11-02T19:59:35.339Z,21.40
2018-11-02T20:01:46.071Z,21.40
2018-11-02T20:03:17.648Z,21.40
2018-11-02T20:04:49.320Z,21.24
2018-11-02T20:06:20.785Z,21.21
2018-11-02T20:07:52.585Z,20.98
2018-11-02T20:10:55.541Z,20.94
2018-11-02T20:12:27.116Z,20.95
2018-11-02T20:13:58.690Z,20.82
2018-11-02T20:17:02.151Z,20.99
2018-11-02T20:18:33.429Z,20.88
2018-11-02T20:21:36.563Z,21.09
2018-11-02T20:24:40.064Z,20.87
2018-11-02T20:26:11.286Z,21.04
2018-11-02T20:27:43.165Z,21.14
2018-11-02T20:29:14.439Z,21.16
2018-11-02T20:32:17.675Z,21.25
2018-11-02T20:33:49.160Z,21.29
2018-11-02T20:35:20.733Z,21.17
2018-11-02T20:36:52.307Z,21.12
2018-11-02T20:39:55.607Z,21.10
2018-11-02T20:41:27.034Z,21.10
2018-11-02T20:42:58.859Z,21.09
2018-11-02T20:44:30.180Z,20.95
2018-11-02T20:46:02.107Z,20.97
2018-11-02T20:47:33.333Z,20.98
2018-11-02T20:49:04.904Z,20.95
2018-11-02T20:52:08.500Z,20.61
2018-11-02T20:53:39.829Z,20.41
2018-11-02T20:55:11.368Z,20.38
2018-11-02T20:56:42.947Z,20.24
2018-11-02T20:58:14.576Z,20.38
2018-11-02T21:01:17.497Z,20.36
2018-11-02T21:02:49.220Z,20.18
2018-11-02T21:04:20.645Z,20.13
2018-11-02T21:05:52.420Z,20.20
2018-11-02T21:07:23.860Z,20.20
2018-11-02T21:08:55.579Z,20.29
2018-11-02T21:10:26.935Z,20.31
2018-11-02T21:11:58.515Z,20.28
2018-11-02T21:13:30.285Z,20.17
2018-11-02T21:15:01.925Z,20.03
2018-11-02T21:16:33.379Z,20.14
2018-11-02T21:18:04.802Z,20.16
2018-11-02T21:19:36.374Z,20.08
2018-11-02T21:22:39.521Z,20.21
2018-11-02T21:24:11.094Z,20.21
2018-11-02T21:25:42.672Z,20.16
2018-11-02T21:27:14.241Z,20.17
2018-11-02T21:28:45.873Z,20.03
2018-11-02T21:30:17.387Z,20.18
2018-11-02T21:31:48.982Z,20.20
2018-11-02T21:33:20.533Z,20.21
2018-11-02T21:36:23.829Z,20.18
2018-11-02T21:37:55.863Z,20.08
2018-11-02T21:39:26.825Z,20.03
2018-11-02T21:40:58.702Z,20.10
2018-11-02T21:42:29.971Z,20.06
2018-11-02T21:44:01.544Z,20.16
2018-11-02T21:45:33.119Z,20.10
2018-11-02T21:47:04.893Z,20.06
2018-11-02T21:48:36.268Z,20.08
2018-11-02T21:50:07.836Z,20.13
2018-11-02T21:51:39.411Z,20.16
2018-11-02T21:53:10.983Z,20.17
2018-11-02T21:54:42.706Z,20.20
2018-11-02T21:56:14.129Z,20.11
2018-11-02T21:57:45.701Z,20.06
2018-11-02T21:59:17.276Z,20.11
2018-11-02T22:00:48.848Z,20.05
2018-11-02T22:02:20.423Z,20.08
2018-11-02T22:03:51.994Z,20.10
2018-11-02T22:05:23.567Z,20.18
2018-11-02T22:06:55.141Z,20.17
2018-11-02T22:08:26.713Z,20.03
2018-11-02T22:09:58.286Z,20.02
2018-11-02T22:11:48.992Z,20.17
2018-11-02T22:13:01.462Z,20.18
2018-11-02T22:14:32.934Z,20.21
2018-11-02T22:16:04.506Z,20.28
2018-11-02T22:17:36.081Z,20.20
2018-11-02T22:19:07.686Z,20.18
2018-11-02T22:20:39.229Z,20.21
2018-11-02T22:22:10.801Z,20.17
2018-11-02T22:25:13.944Z,20.20
2018-11-02T22:26:45.517Z,20.16
2018-11-02T22:28:17.091Z,20.28
2018-11-02T22:29:48.663Z,20.20
2018-11-02T22:31:20.338Z,20.18
2018-11-02T22:32:51.810Z,20.18
2018-11-02T22:34:23.382Z,20.23
2018-11-02T22:35:54.958Z,20.18
2018-11-02T22:37:26.529Z,20.01
2018-11-02T22:38:58.631Z,20.17
2018-11-02T22:40:29.674Z,20.20
2018-11-02T22:42:01.248Z,20.18
2018-11-02T22:43:32.819Z,20.18
2018-11-02T22:45:04.392Z,20.18
2018-11-02T22:46:35.968Z,20.32
2018-11-02T22:48:07.540Z,20.36
2018-11-02T22:51:10.784Z,20.33
2018-11-02T22:52:42.257Z,20.39
2018-11-02T22:54:13.951Z,20.26
2018-11-02T22:55:45.405Z,20.39
2018-11-02T22:57:16.978Z,20.47
2018-11-02T22:58:48.550Z,20.41
2018-11-02T23:00:20.123Z,20.42
2018-11-02T23:01:51.698Z,20.51
2018-11-02T23:03:23.271Z,20.42
2018-11-02T23:04:54.843Z,20.38
2018-11-02T23:06:26.417Z,20.33
2018-11-02T23:07:57.988Z,20.28
2018-11-02T23:09:29.663Z,20.47
2018-11-02T23:11:01.135Z,20.42
2018-11-02T23:12:32.708Z,20.38